sensor_id;sensor_type;location;lat;lon;timestamp;pressure;altitude;pressure_sealevel;temperature;humidity
64841;BME280;51307;52.162;7.560;2024-01-27T00:01:15;102775.41;;;3.92;77.20
64841;BME280;51307;52.162;7.560;2024-01-27T00:03:40;102767.84;;;4.22;76.61
64841;BME280;51307;52.162;7.560;2024-01-27T00:06:05;102773.47;;;4.35;76.11
64841;BME280;51307;52.162;7.560;2024-01-27T00:08:31;102780.81;;;4.47;75.23
64841;BME280;51307;52.162;7.560;2024-01-27T00:10:57;102781.75;;;4.46;75.20
64841;BME280;51307;52.162;7.560;2024-01-27T00:13:22;102790.91;;;4.20;75.97
64841;BME280;51307;52.162;7.560;2024-01-27T00:15:48;102798.47;;;4.09;75.91
64841;BME280;51307;52.162;7.560;2024-01-27T00:18:15;102781.19;;;4.39;75.32
64841;BME280;51307;52.162;7.560;2024-01-27T00:20:41;102793.13;;;4.50;74.78
64841;BME280;51307;52.162;7.560;2024-01-27T00:23:07;102796.47;;;4.14;76.12
64841;BME280;51307;52.162;7.560;2024-01-27T00:25:33;102791.59;;;4.44;74.41
64841;BME280;51307;52.162;7.560;2024-01-27T00:27:59;102809.13;;;4.07;75.33
64841;BME280;51307;52.162;7.560;2024-01-27T00:30:24;102806.13;;;3.96;76.05
64841;BME280;51307;52.162;7.560;2024-01-27T00:32:51;102800.28;;;4.08;75.23
64841;BME280;51307;52.162;7.560;2024-01-27T00:35:17;102801.56;;;4.58;74.39
64841;BME280;51307;52.162;7.560;2024-01-27T00:37:42;102794.91;;;4.29;74.35
64841;BME280;51307;52.162;7.560;2024-01-27T00:40:09;102804.53;;;4.31;74.36
64841;BME280;51307;52.162;7.560;2024-01-27T00:42:35;102810.25;;;4.22;74.63
64841;BME280;51307;52.162;7.560;2024-01-27T00:45:01;102819.78;;;4.26;74.73
64841;BME280;51307;52.162;7.560;2024-01-27T00:47:26;102817.72;;;3.93;75.47
64841;BME280;51307;52.162;7.560;2024-01-27T00:49:52;102817.03;;;4.09;75.31
64841;BME280;51307;52.162;7.560;2024-01-27T00:52:19;102822.69;;;4.01;75.39
64841;BME280;51307;52.162;7.560;2024-01-27T00:54:45;102832.75;;;4.32;74.97
64841;BME280;51307;52.162;7.560;2024-01-27T00:57:10;102829.66;;;4.22;74.99
64841;BME280;51307;52.162;7.560;2024-01-27T00:59:36;102838.28;;;4.07;74.70
64841;BME280;51307;52.162;7.560;2024-01-27T01:02:02;102832.88;;;4.50;74.22
64841;BME280;51307;52.162;7.560;2024-01-27T01:04:27;102837.81;;;4.18;74.79
64841;BME280;51307;52.162;7.560;2024-01-27T01:06:53;102842.28;;;4.36;74.38
64841;BME280;51307;52.162;7.560;2024-01-27T01:09:19;102834.06;;;4.43;74.05
64841;BME280;51307;52.162;7.560;2024-01-27T01:11:44;102839.63;;;4.36;74.18
64841;BME280;51307;52.162;7.560;2024-01-27T01:14:10;102841.03;;;4.25;73.78
64841;BME280;51307;52.162;7.560;2024-01-27T01:16:35;102843.28;;;4.34;74.19
64841;BME280;51307;52.162;7.560;2024-01-27T01:19:01;102849.34;;;4.17;74.56
64841;BME280;51307;52.162;7.560;2024-01-27T01:21:27;102854.03;;;4.31;74.20
64841;BME280;51307;52.162;7.560;2024-01-27T01:23:53;102846.41;;;4.23;74.69
64841;BME280;51307;52.162;7.560;2024-01-27T01:26:19;102849.47;;;4.34;74.38
64841;BME280;51307;52.162;7.560;2024-01-27T01:28:45;102854.97;;;4.30;74.20
64841;BME280;51307;52.162;7.560;2024-01-27T01:31:10;102854.66;;;4.17;74.64
64841;BME280;51307;52.162;7.560;2024-01-27T01:33:36;102859.81;;;4.20;73.94
64841;BME280;51307;52.162;7.560;2024-01-27T01:36:02;102858.75;;;3.83;75.51
64841;BME280;51307;52.162;7.560;2024-01-27T01:38:27;102866.06;;;4.38;73.89
64841;BME280;51307;52.162;7.560;2024-01-27T01:40:53;102865.72;;;4.06;74.66
64841;BME280;51307;52.162;7.560;2024-01-27T01:43:19;102863.66;;;4.13;74.68
64841;BME280;51307;52.162;7.560;2024-01-27T01:45:44;102869.59;;;4.18;74.17
64841;BME280;51307;52.162;7.560;2024-01-27T01:48:10;102869.13;;;4.29;73.97
64841;BME280;51307;52.162;7.560;2024-01-27T01:50:36;102865.66;;;4.08;74.88
64841;BME280;51307;52.162;7.560;2024-01-27T01:53:01;102855.84;;;4.30;73.95
64841;BME280;51307;52.162;7.560;2024-01-27T01:55:27;102862.31;;;4.23;74.29
64841;BME280;51307;52.162;7.560;2024-01-27T01:57:53;102855.28;;;4.22;74.32
64841;BME280;51307;52.162;7.560;2024-01-27T02:00:18;102862.16;;;4.26;74.09
64841;BME280;51307;52.162;7.560;2024-01-27T02:02:44;102862.97;;;4.28;73.59
64841;BME280;51307;52.162;7.560;2024-01-27T02:05:12;102862.97;;;4.28;73.56
64841;BME280;51307;52.162;7.560;2024-01-27T02:07:37;102861.81;;;4.15;74.05
64841;BME280;51307;52.162;7.560;2024-01-27T02:10:03;102851.72;;;4.23;73.68
64841;BME280;51307;52.162;7.560;2024-01-27T02:12:29;102852.13;;;4.34;72.98
64841;BME280;51307;52.162;7.560;2024-01-27T02:14:54;102857.53;;;4.31;72.72
64841;BME280;51307;52.162;7.560;2024-01-27T02:17:20;102858.91;;;4.21;73.19
64841;BME280;51307;52.162;7.560;2024-01-27T02:19:45;102862.31;;;4.23;73.44
64841;BME280;51307;52.162;7.560;2024-01-27T02:22:11;102868.28;;;4.28;73.15
64841;BME280;51307;52.162;7.560;2024-01-27T02:24:36;102864.91;;;4.25;73.29
64841;BME280;51307;52.162;7.560;2024-01-27T02:27:01;102864.25;;;4.19;73.09
64841;BME280;51307;52.162;7.560;2024-01-27T02:29:27;102866.94;;;4.18;73.09
64841;BME280;51307;52.162;7.560;2024-01-27T02:31:54;102870.22;;;4.04;73.66
64841;BME280;51307;52.162;7.560;2024-01-27T02:34:20;102869.63;;;3.97;73.87
64841;BME280;51307;52.162;7.560;2024-01-27T02:36:45;102869.34;;;3.83;74.40
64841;BME280;51307;52.162;7.560;2024-01-27T02:39:11;102868.56;;;4.01;73.97
64841;BME280;51307;52.162;7.560;2024-01-27T02:41:36;102858.81;;;3.81;74.59
64841;BME280;51307;52.162;7.560;2024-01-27T02:44:07;102858.09;;;3.98;74.21
64841;BME280;51307;52.162;7.560;2024-01-27T02:46:32;102858.75;;;3.83;75.07
64841;BME280;51307;52.162;7.560;2024-01-27T02:48:58;102863.00;;;3.87;74.87
64841;BME280;51307;52.162;7.560;2024-01-27T02:51:23;102857.69;;;3.87;74.98
64841;BME280;51307;52.162;7.560;2024-01-27T02:53:49;102854.63;;;3.55;75.19
64841;BME280;51307;52.162;7.560;2024-01-27T02:56:16;102857.22;;;3.57;75.35
64841;BME280;51307;52.162;7.560;2024-01-27T02:58:41;102863.81;;;3.67;75.63
64841;BME280;51307;52.162;7.560;2024-01-27T03:01:07;102858.81;;;3.81;75.13
64841;BME280;51307;52.162;7.560;2024-01-27T03:03:33;102861.47;;;3.81;75.33
64841;BME280;51307;52.162;7.560;2024-01-27T03:05:58;102868.28;;;3.87;74.75
64841;BME280;51307;52.162;7.560;2024-01-27T03:08:24;102862.88;;;3.90;74.94
64841;BME280;51307;52.162;7.560;2024-01-27T03:10:50;102861.41;;;3.83;75.29
64841;BME280;51307;52.162;7.560;2024-01-27T03:13:15;102877.63;;;3.96;74.19
64841;BME280;51307;52.162;7.560;2024-01-27T03:15:41;102876.28;;;3.85;74.80
64841;BME280;51307;52.162;7.560;2024-01-27T03:18:08;102876.91;;;3.92;74.49
64841;BME280;51307;52.162;7.560;2024-01-27T03:20:34;102871.22;;;3.81;74.28
64841;BME280;51307;52.162;7.560;2024-01-27T03:22:59;102879.81;;;3.86;74.78
64841;BME280;51307;52.162;7.560;2024-01-27T03:25:25;102869.94;;;3.89;74.78
64841;BME280;51307;52.162;7.560;2024-01-27T03:27:51;102870.28;;;3.82;74.49
64841;BME280;51307;52.162;7.560;2024-01-27T03:30:17;102873.06;;;3.79;74.75
64841;BME280;51307;52.162;7.560;2024-01-27T03:32:42;102881.13;;;3.96;74.65
64841;BME280;51307;52.162;7.560;2024-01-27T03:35:08;102862.13;;;3.86;74.73
64841;BME280;51307;52.162;7.560;2024-01-27T03:37:33;102870.06;;;4.07;73.85
64841;BME280;51307;52.162;7.560;2024-01-27T03:40:00;102864.56;;;3.91;74.21
64841;BME280;51307;52.162;7.560;2024-01-27T03:42:26;102872.78;;;4.05;74.00
64841;BME280;51307;52.162;7.560;2024-01-27T03:44:51;102876.19;;;3.88;74.13
64841;BME280;51307;52.162;7.560;2024-01-27T03:47:17;102876.06;;;3.92;73.97
64841;BME280;51307;52.162;7.560;2024-01-27T03:49:43;102870.09;;;3.86;74.25
64841;BME280;51307;52.162;7.560;2024-01-27T03:52:09;102871.88;;;3.86;74.36
64841;BME280;51307;52.162;7.560;2024-01-27T03:54:37;102866.63;;;3.84;74.49
64841;BME280;51307;52.162;7.560;2024-01-27T03:57:03;102861.47;;;3.81;74.69
64841;BME280;51307;52.162;7.560;2024-01-27T03:59:29;102869.63;;;3.77;74.83
64841;BME280;51307;52.162;7.560;2024-01-27T04:01:54;102869.97;;;3.47;75.79
64841;BME280;51307;52.162;7.560;2024-01-27T04:04:21;102872.13;;;3.80;74.79
64841;BME280;51307;52.162;7.560;2024-01-27T04:06:46;102873.44;;;3.69;75.01
64841;BME280;51307;52.162;7.560;2024-01-27T04:09:12;102867.09;;;3.74;75.11
64841;BME280;51307;52.162;7.560;2024-01-27T04:11:38;102877.66;;;3.74;74.98
64841;BME280;51307;52.162;7.560;2024-01-27T04:14:06;102879.91;;;3.62;75.15
64841;BME280;51307;52.162;7.560;2024-01-27T04:16:32;102871.16;;;3.60;75.26
64841;BME280;51307;52.162;7.560;2024-01-27T04:18:57;102870.19;;;3.63;75.35
64841;BME280;51307;52.162;7.560;2024-01-27T04:21:23;102875.97;;;3.72;74.74
64841;BME280;51307;52.162;7.560;2024-01-27T04:23:49;102867.75;;;3.58;75.57
64841;BME280;51307;52.162;7.560;2024-01-27T04:26:14;102873.16;;;3.55;75.40
64841;BME280;51307;52.162;7.560;2024-01-27T04:28:40;102878.25;;;3.60;75.29
64841;BME280;51307;52.162;7.560;2024-01-27T04:31:05;102879.19;;;3.59;74.74
64841;BME280;51307;52.162;7.560;2024-01-27T04:33:32;102881.03;;;3.57;74.46
64841;BME280;51307;52.162;7.560;2024-01-27T04:35:58;102885.88;;;3.67;74.13
64841;BME280;51307;52.162;7.560;2024-01-27T04:38:24;102886.94;;;3.63;73.59
64841;BME280;51307;52.162;7.560;2024-01-27T04:40:51;102885.81;;;3.69;73.65
64841;BME280;51307;52.162;7.560;2024-01-27T04:43:18;102887.19;;;3.57;73.62
64841;BME280;51307;52.162;7.560;2024-01-27T04:45:47;102891.56;;;3.58;73.13
64841;BME280;51307;52.162;7.560;2024-01-27T04:48:13;102888.16;;;3.54;73.49
64841;BME280;51307;52.162;7.560;2024-01-27T04:50:38;102885.59;;;3.53;73.73
64841;BME280;51307;52.162;7.560;2024-01-27T04:53:04;102897.09;;;3.52;73.28
64841;BME280;51307;52.162;7.560;2024-01-27T04:55:30;102887.69;;;3.45;73.13
64841;BME280;51307;52.162;7.560;2024-01-27T04:57:55;102896.53;;;3.44;73.17
64841;BME280;51307;52.162;7.560;2024-01-27T05:00:21;102905.53;;;3.40;72.63
64841;BME280;51307;52.162;7.560;2024-01-27T05:02:46;102905.72;;;3.35;73.30
64841;BME280;51307;52.162;7.560;2024-01-27T05:05:12;102896.97;;;3.33;73.26
64841;BME280;51307;52.162;7.560;2024-01-27T05:07:38;102899.63;;;3.55;72.77
64841;BME280;51307;52.162;7.560;2024-01-27T05:10:04;102901.16;;;3.38;72.98
64841;BME280;51307;52.162;7.560;2024-01-27T05:12:30;102902.03;;;3.39;72.90
64841;BME280;51307;52.162;7.560;2024-01-27T05:14:55;102901.97;;;3.41;72.90
64841;BME280;51307;52.162;7.560;2024-01-27T05:17:21;102892.66;;;3.30;73.15
64841;BME280;51307;52.162;7.560;2024-01-27T05:19:46;102895.94;;;3.37;73.12
64841;BME280;51307;52.162;7.560;2024-01-27T05:22:12;102898.41;;;3.42;72.97
64841;BME280;51307;52.162;7.560;2024-01-27T05:24:37;102879.34;;;3.33;73.67
64841;BME280;51307;52.162;7.560;2024-01-27T05:27:03;102886.94;;;3.41;73.69
64841;BME280;51307;52.162;7.560;2024-01-27T05:29:29;102884.06;;;3.47;73.86
64841;BME280;51307;52.162;7.560;2024-01-27T05:31:54;102882.03;;;3.32;74.69
64841;BME280;51307;52.162;7.560;2024-01-27T05:34:20;102885.97;;;3.44;74.51
64841;BME280;51307;52.162;7.560;2024-01-27T05:36:47;102883.25;;;3.45;74.51
64841;BME280;51307;52.162;7.560;2024-01-27T05:39:13;102883.44;;;3.41;74.87
64841;BME280;51307;52.162;7.560;2024-01-27T05:41:39;102894.94;;;3.40;74.78
64841;BME280;51307;52.162;7.560;2024-01-27T05:44:05;102886.59;;;3.28;74.96
64841;BME280;51307;52.162;7.560;2024-01-27T05:46:30;102878.72;;;3.27;76.20
64841;BME280;51307;52.162;7.560;2024-01-27T05:48:55;102887.13;;;3.14;75.91
64841;BME280;51307;52.162;7.560;2024-01-27T05:51:26;102886.03;;;3.20;75.95
64841;BME280;51307;52.162;7.560;2024-01-27T05:53:52;102897.41;;;3.22;75.83
64841;BME280;51307;52.162;7.560;2024-01-27T05:56:18;102883.63;;;3.14;76.20
64841;BME280;51307;52.162;7.560;2024-01-27T05:58:49;102892.47;;;3.13;76.58
64841;BME280;51307;52.162;7.560;2024-01-27T06:01:17;102891.50;;;3.15;76.67
64841;BME280;51307;52.162;7.560;2024-01-27T06:03:43;102898.31;;;2.99;76.70
64841;BME280;51307;52.162;7.560;2024-01-27T06:06:09;102902.00;;;3.17;76.64
64841;BME280;51307;52.162;7.560;2024-01-27T06:08:35;102910.63;;;3.22;76.32
64841;BME280;51307;52.162;7.560;2024-01-27T06:11:01;102904.97;;;3.09;76.76
64841;BME280;51307;52.162;7.560;2024-01-27T06:13:27;102905.06;;;3.06;76.96
64841;BME280;51307;52.162;7.560;2024-01-27T06:15:53;102903.03;;;2.91;77.90
64841;BME280;51307;52.162;7.560;2024-01-27T06:18:18;102913.34;;;2.98;77.86
64841;BME280;51307;52.162;7.560;2024-01-27T06:20:44;102912.31;;;3.01;77.44
64841;BME280;51307;52.162;7.560;2024-01-27T06:23:10;102917.22;;;3.12;77.23
64841;BME280;51307;52.162;7.560;2024-01-27T06:25:35;102924.81;;;2.97;77.77
64841;BME280;51307;52.162;7.560;2024-01-27T06:28:01;102933.19;;;3.09;77.12
64841;BME280;51307;52.162;7.560;2024-01-27T06:30:26;102934.81;;;3.13;77.38
64841;BME280;51307;52.162;7.560;2024-01-27T06:32:52;102934.00;;;3.11;77.23
64841;BME280;51307;52.162;7.560;2024-01-27T06:35:17;102939.75;;;3.22;75.82
64841;BME280;51307;52.162;7.560;2024-01-27T06:37:43;102941.47;;;3.23;75.83
64841;BME280;51307;52.162;7.560;2024-01-27T06:40:08;102942.94;;;3.30;75.81
64841;BME280;51307;52.162;7.560;2024-01-27T06:42:37;102951.69;;;3.32;75.56
64841;BME280;51307;52.162;7.560;2024-01-27T06:45:02;102942.50;;;3.19;75.95
64841;BME280;51307;52.162;7.560;2024-01-27T06:47:29;102957.78;;;3.34;75.46
64841;BME280;51307;52.162;7.560;2024-01-27T06:49:54;102952.06;;;3.23;75.36
64841;BME280;51307;52.162;7.560;2024-01-27T06:52:20;102952.06;;;3.23;75.31
64841;BME280;51307;52.162;7.560;2024-01-27T06:54:45;102952.19;;;3.42;74.82
64841;BME280;51307;52.162;7.560;2024-01-27T06:57:21;102956.44;;;3.46;74.44
64841;BME280;51307;52.162;7.560;2024-01-27T06:59:51;102964.53;;;3.19;75.07
64841;BME280;51307;52.162;7.560;2024-01-27T07:02:27;102962.22;;;3.10;75.60
64841;BME280;51307;52.162;7.560;2024-01-27T07:04:52;102966.69;;;3.32;75.24
64841;BME280;51307;52.162;7.560;2024-01-27T07:07:23;102968.97;;;3.19;75.31
64841;BME280;51307;52.162;7.560;2024-01-27T07:09:51;102970.97;;;3.12;75.02
64841;BME280;51307;52.162;7.560;2024-01-27T07:12:16;102972.31;;;3.24;75.31
64841;BME280;51307;52.162;7.560;2024-01-27T07:14:42;102963.94;;;3.35;74.79
64841;BME280;51307;52.162;7.560;2024-01-27T07:17:07;102962.13;;;3.13;75.46
64841;BME280;51307;52.162;7.560;2024-01-27T07:19:33;102970.78;;;3.17;75.12
64841;BME280;51307;52.162;7.560;2024-01-27T07:21:58;102968.34;;;3.12;74.85
64841;BME280;51307;52.162;7.560;2024-01-27T07:24:25;102969.38;;;3.08;74.95
64841;BME280;51307;52.162;7.560;2024-01-27T07:26:51;102971.31;;;3.27;74.13
64841;BME280;51307;52.162;7.560;2024-01-27T07:29:17;102979.06;;;3.08;74.73
64841;BME280;51307;52.162;7.560;2024-01-27T07:31:42;102985.25;;;3.08;74.90
64841;BME280;51307;52.162;7.560;2024-01-27T07:34:08;102981.00;;;3.04;74.89
64841;BME280;51307;52.162;7.560;2024-01-27T07:36:34;102990.75;;;3.26;74.47
64841;BME280;51307;52.162;7.560;2024-01-27T07:38:59;102980.75;;;3.10;74.49
64841;BME280;51307;52.162;7.560;2024-01-27T07:41:25;102975.50;;;3.09;74.70
64841;BME280;51307;52.162;7.560;2024-01-27T07:43:50;102977.59;;;3.24;74.45
64841;BME280;51307;52.162;7.560;2024-01-27T07:46:16;102979.72;;;3.14;74.84
64841;BME280;51307;52.162;7.560;2024-01-27T07:48:42;102973.91;;;3.04;75.75
64841;BME280;51307;52.162;7.560;2024-01-27T07:51:07;102974.06;;;3.24;75.00
64841;BME280;51307;52.162;7.560;2024-01-27T07:53:33;102972.88;;;3.09;75.94
64841;BME280;51307;52.162;7.560;2024-01-27T07:55:59;102974.06;;;3.24;74.96
64841;BME280;51307;52.162;7.560;2024-01-27T07:58:25;102984.03;;;3.17;75.31
64841;BME280;51307;52.162;7.560;2024-01-27T08:00:51;102978.28;;;3.06;75.65
64841;BME280;51307;52.162;7.560;2024-01-27T08:03:16;102978.50;;;3.23;75.06
64841;BME280;51307;52.162;7.560;2024-01-27T08:05:42;102979.13;;;3.30;75.42
64841;BME280;51307;52.162;7.560;2024-01-27T08:08:07;102982.41;;;3.36;74.78
64841;BME280;51307;52.162;7.560;2024-01-27T08:10:32;102992.03;;;3.15;75.70
64841;BME280;51307;52.162;7.560;2024-01-27T08:12:58;102985.25;;;3.08;76.00
64841;BME280;51307;52.162;7.560;2024-01-27T08:15:23;102990.34;;;3.13;76.02
64841;BME280;51307;52.162;7.560;2024-01-27T08:17:49;102998.50;;;3.30;75.41
64841;BME280;51307;52.162;7.560;2024-01-27T08:20:14;103006.44;;;3.30;75.79
64841;BME280;51307;52.162;7.560;2024-01-27T08:22:40;103005.75;;;3.25;75.92
64841;BME280;51307;52.162;7.560;2024-01-27T08:25:06;103001.28;;;3.51;75.20
64841;BME280;51307;52.162;7.560;2024-01-27T08:27:31;103002.81;;;3.33;75.64
64841;BME280;51307;52.162;7.560;2024-01-27T08:29:57;103002.53;;;3.41;75.67
64841;BME280;51307;52.162;7.560;2024-01-27T08:32:22;103001.16;;;3.30;75.84
64841;BME280;51307;52.162;7.560;2024-01-27T08:34:48;102996.53;;;3.59;75.58
64841;BME280;51307;52.162;7.560;2024-01-27T08:37:18;103002.53;;;3.41;76.16
64841;BME280;51307;52.162;7.560;2024-01-27T08:39:44;103007.16;;;3.12;77.58
64841;BME280;51307;52.162;7.560;2024-01-27T08:42:10;103009.16;;;3.52;76.13
64841;BME280;51307;52.162;7.560;2024-01-27T08:44:35;103012.31;;;3.38;76.41
64841;BME280;51307;52.162;7.560;2024-01-27T08:47:01;103006.19;;;3.60;75.91
64841;BME280;51307;52.162;7.560;2024-01-27T08:49:26;103007.84;;;3.41;76.66
64841;BME280;51307;52.162;7.560;2024-01-27T08:51:52;103011.59;;;3.57;76.48
64841;BME280;51307;52.162;7.560;2024-01-27T08:54:17;103013.81;;;3.46;76.90
64841;BME280;51307;52.162;7.560;2024-01-27T08:56:43;103006.38;;;3.32;77.58
64841;BME280;51307;52.162;7.560;2024-01-27T08:59:08;103007.41;;;3.51;76.83
64841;BME280;51307;52.162;7.560;2024-01-27T09:01:34;103029.09;;;3.61;76.38
64841;BME280;51307;52.162;7.560;2024-01-27T09:03:59;103018.97;;;3.72;76.52
64841;BME280;51307;52.162;7.560;2024-01-27T09:06:25;103029.84;;;3.87;75.91
64841;BME280;51307;52.162;7.560;2024-01-27T09:20:19;103039.97;;;3.99;75.38
64841;BME280;51307;52.162;7.560;2024-01-27T09:22:47;103038.72;;;4.08;75.18
64841;BME280;51307;52.162;7.560;2024-01-27T09:25:13;103044.06;;;4.07;74.87
64841;BME280;51307;52.162;7.560;2024-01-27T09:27:39;103047.28;;;4.15;74.95
64841;BME280;51307;52.162;7.560;2024-01-27T09:30:05;103051.09;;;4.08;74.70
64841;BME280;51307;52.162;7.560;2024-01-27T09:32:31;103062.44;;;3.89;75.82
64841;BME280;51307;52.162;7.560;2024-01-27T09:34:56;103074.81;;;4.11;74.75
64841;BME280;51307;52.162;7.560;2024-01-27T09:37:22;103072.16;;;4.11;74.79
64841;BME280;51307;52.162;7.560;2024-01-27T09:39:47;103075.03;;;4.06;75.06
64841;BME280;51307;52.162;7.560;2024-01-27T09:42:14;103067.25;;;4.24;74.60
64841;BME280;51307;52.162;7.560;2024-01-27T09:44:49;103073.03;;;4.33;74.74
64841;BME280;51307;52.162;7.560;2024-01-27T09:47:16;103069.09;;;4.21;74.46
64841;BME280;51307;52.162;7.560;2024-01-27T09:49:42;103072.66;;;4.20;74.86
64841;BME280;51307;52.162;7.560;2024-01-27T09:52:08;103077.03;;;4.21;75.36
64841;BME280;51307;52.162;7.560;2024-01-27T09:54:34;103076.78;;;4.28;74.85
64841;BME280;51307;52.162;7.560;2024-01-27T09:57:01;103086.00;;;4.39;74.50
64841;BME280;51307;52.162;7.560;2024-01-27T09:59:27;103082.88;;;4.30;74.67
64841;BME280;51307;52.162;7.560;2024-01-27T10:01:54;103075.06;;;4.04;75.74
64841;BME280;51307;52.162;7.560;2024-01-27T10:04:22;103069.69;;;4.50;74.44
64841;BME280;51307;52.162;7.560;2024-01-27T10:06:49;103060.31;;;4.42;74.41
64841;BME280;51307;52.162;7.560;2024-01-27T10:09:16;103067.91;;;4.51;74.19
64841;BME280;51307;52.162;7.560;2024-01-27T10:11:46;103062.28;;;4.59;73.97
64841;BME280;51307;52.162;7.560;2024-01-27T10:14:12;103071.31;;;4.75;73.55
64841;BME280;51307;52.162;7.560;2024-01-27T10:16:41;103074.50;;;4.63;73.16
64841;BME280;51307;52.162;7.560;2024-01-27T10:19:15;103074.09;;;4.72;72.96
64841;BME280;51307;52.162;7.560;2024-01-27T10:21:59;103076.75;;;4.72;73.21
64841;BME280;51307;52.162;7.560;2024-01-27T10:24:24;103082.75;;;4.76;72.81
64841;BME280;51307;52.162;7.560;2024-01-27T10:26:50;103084.09;;;4.86;72.93
64841;BME280;51307;52.162;7.560;2024-01-27T10:29:15;103080.53;;;4.87;72.73
64841;BME280;51307;52.162;7.560;2024-01-27T10:31:41;103072.03;;;4.79;72.42
64841;BME280;51307;52.162;7.560;2024-01-27T10:34:09;103063.13;;;4.59;73.08
64841;BME280;51307;52.162;7.560;2024-01-27T10:36:41;103072.50;;;4.88;72.24
64841;BME280;51307;52.162;7.560;2024-01-27T10:39:23;103057.72;;;4.83;72.41
64841;BME280;51307;52.162;7.560;2024-01-27T10:41:50;103054.31;;;5.00;72.03
64841;BME280;51307;52.162;7.560;2024-01-27T10:44:18;103057.44;;;4.89;72.44
64841;BME280;51307;52.162;7.560;2024-01-27T10:46:45;103056.38;;;4.93;72.45
64841;BME280;51307;52.162;7.560;2024-01-27T10:49:16;103058.94;;;4.95;72.49
64841;BME280;51307;52.162;7.560;2024-01-27T10:51:55;103054.13;;;5.04;72.32
64841;BME280;51307;52.162;7.560;2024-01-27T10:54:25;103053.13;;;5.26;71.85
64841;BME280;51307;52.162;7.560;2024-01-27T10:56:55;103051.69;;;5.19;71.85
64841;BME280;51307;52.162;7.560;2024-01-27T10:59:22;103048.66;;;5.08;72.11
64841;BME280;51307;52.162;7.560;2024-01-27T11:01:49;103053.91;;;5.28;71.92
64841;BME280;51307;52.162;7.560;2024-01-27T11:04:21;103047.31;;;5.18;71.52
64841;BME280;51307;52.162;7.560;2024-01-27T11:06:48;103052.22;;;5.06;72.10
64841;BME280;51307;52.162;7.560;2024-01-27T11:09:14;103058.28;;;5.29;72.03
64841;BME280;51307;52.162;7.560;2024-01-27T11:11:44;103059.72;;;5.36;71.76
64841;BME280;51307;52.162;7.560;2024-01-27T11:14:11;103058.66;;;5.40;71.36
64841;BME280;51307;52.162;7.560;2024-01-27T11:16:37;103065.19;;;5.33;70.94
64841;BME280;51307;52.162;7.560;2024-01-27T11:19:11;103058.28;;;5.29;71.40
64841;BME280;51307;52.162;7.560;2024-01-27T11:21:37;103056.13;;;5.18;71.21
64841;BME280;51307;52.162;7.560;2024-01-27T11:24:16;103059.88;;;5.52;70.88
64841;BME280;51307;52.162;7.560;2024-01-27T11:26:42;103065.94;;;5.56;71.23
64841;BME280;51307;52.162;7.560;2024-01-27T11:29:08;103054.22;;;5.60;71.00
64841;BME280;51307;52.162;7.560;2024-01-27T11:31:46;103060.34;;;5.62;70.58
64841;BME280;51307;52.162;7.560;2024-01-27T11:34:13;103064.78;;;5.62;70.31
64841;BME280;51307;52.162;7.560;2024-01-27T11:36:43;103061.91;;;5.66;70.09
64841;BME280;51307;52.162;7.560;2024-01-27T11:39:26;103053.63;;;5.72;69.97
64841;BME280;51307;52.162;7.560;2024-01-27T11:41:52;103054.28;;;5.78;69.77
64841;BME280;51307;52.162;7.560;2024-01-27T11:44:21;103055.38;;;5.73;69.74
64841;BME280;51307;52.162;7.560;2024-01-27T11:46:47;103060.75;;;5.72;69.58
64841;BME280;51307;52.162;7.560;2024-01-27T11:49:15;103061.84;;;5.68;69.29
64841;BME280;51307;52.162;7.560;2024-01-27T11:51:42;103065.41;;;5.67;68.97
64841;BME280;51307;52.162;7.560;2024-01-27T11:54:08;103056.06;;;5.96;69.03
64841;BME280;51307;52.162;7.560;2024-01-27T11:56:33;103058.56;;;5.99;68.51
64841;BME280;51307;52.162;7.560;2024-01-27T11:58:59;103059.59;;;6.14;68.25
64841;BME280;51307;52.162;7.560;2024-01-27T12:01:24;103059.56;;;5.97;68.91
64841;BME280;51307;52.162;7.560;2024-01-27T12:03:50;103057.88;;;6.13;69.07
64841;BME280;51307;52.162;7.560;2024-01-27T12:06:16;103059.56;;;5.97;68.32
64841;BME280;51307;52.162;7.560;2024-01-27T12:08:45;103055.16;;;6.15;67.95
64841;BME280;51307;52.162;7.560;2024-01-27T12:11:13;103062.91;;;6.19;66.72
64841;BME280;51307;52.162;7.560;2024-01-27T12:13:38;103061.09;;;6.20;66.64
64841;BME280;51307;52.162;7.560;2024-01-27T12:16:04;103063.91;;;6.17;66.18
64841;BME280;51307;52.162;7.560;2024-01-27T12:18:30;103061.81;;;6.23;66.02
64841;BME280;51307;52.162;7.560;2024-01-27T12:20:57;103060.88;;;6.24;65.96
64841;BME280;51307;52.162;7.560;2024-01-27T12:23:23;103057.03;;;6.30;65.40
64841;BME280;51307;52.162;7.560;2024-01-27T12:25:55;103051.25;;;6.22;65.47
64841;BME280;51307;52.162;7.560;2024-01-27T12:28:24;103051.56;;;6.33;64.98
64841;BME280;51307;52.162;7.560;2024-01-27T12:30:52;103056.03;;;6.33;64.76
64841;BME280;51307;52.162;7.560;2024-01-27T12:33:18;103059.41;;;6.36;64.42
64841;BME280;51307;52.162;7.560;2024-01-27T12:35:49;103063.22;;;6.31;64.68
64841;BME280;51307;52.162;7.560;2024-01-27T12:38:14;103064.84;;;6.16;64.81
64841;BME280;51307;52.162;7.560;2024-01-27T12:40:42;103070.16;;;6.16;64.91
64841;BME280;51307;52.162;7.560;2024-01-27T12:43:07;103066.41;;;6.20;64.21
64841;BME280;51307;52.162;7.560;2024-01-27T12:45:33;103059.47;;;6.17;64.01
64841;BME280;51307;52.162;7.560;2024-01-27T12:48:00;103060.97;;;6.23;64.25
64841;BME280;51307;52.162;7.560;2024-01-27T12:50:26;103064.00;;;6.15;63.97
64841;BME280;51307;52.162;7.560;2024-01-27T12:52:51;103056.75;;;6.36;63.67
64841;BME280;51307;52.162;7.560;2024-01-27T12:55:17;103052.81;;;6.26;63.76
64841;BME280;51307;52.162;7.560;2024-01-27T12:57:43;103058.78;;;6.31;64.11
64841;BME280;51307;52.162;7.560;2024-01-27T13:00:09;103066.69;;;6.50;64.70
64841;BME280;51307;52.162;7.560;2024-01-27T13:02:37;103074.47;;;6.36;64.47
64841;BME280;51307;52.162;7.560;2024-01-27T13:05:03;103072.63;;;6.38;63.89
64841;BME280;51307;52.162;7.560;2024-01-27T13:07:29;103069.03;;;6.56;63.08